Time;durP1;ratioP1;P1;durP2;ratioP2;P2;SDS_P1;SDS_P2;PMS_P1;PMS_P2;Temp;Humidity;BMP_temperature;BMP_pressure;BME280_temperature;BME280_humidity;BME280_pressure;Samples;Min_cycle;Max_cycle;Signal;HPM_P1;HPM_P2
2022/02/21 00:03:41;;;;;;;6.60;3.70;;;;;;;5.39;78.61;97801.42;430995;1270;141717;-66
2022/02/21 00:13:47;;;;;;;2.70;1.90;;;;;;;5.44;78.42;97779.04;432588;1270;141457;-64
2022/02/21 00:23:53;;;;;;;2.40;1.80;;;;;;;5.52;78.06;97758.67;436570;1271;142541;-69
2022/02/21 00:33:59;;;;;;;2.70;1.90;;;;;;;5.56;78.32;97747.95;430285;1271;141078;-68
2022/02/21 00:44:06;;;;;;;4.10;1.80;;;;;;;5.54;78.48;97730.30;430257;1273;141392;-68
2022/02/21 00:54:12;;;;;;;2.70;1.90;;;;;;;5.45;78.72;97710.26;430284;1270;141804;-71
2022/02/21 01:04:18;;;;;;;2.80;1.80;;;;;;;5.36;79.45;97689.90;430287;1270;141972;-69
2022/02/21 01:14:24;;;;;;;3.10;1.90;;;;;;;5.30;79.75;97670.21;430497;1270;141873;-67
2022/02/21 01:24:30;;;;;;;2.70;1.90;;;;;;;5.24;80.09;97654.88;429729;1270;142115;-69
2022/02/21 01:34:36;;;;;;;2.20;1.70;;;;;;;5.17;80.72;97628.15;430707;1270;141236;-67
2022/02/21 01:44:44;;;;;;;3.60;2.10;;;;;;;5.13;80.98;97601.38;430290;1270;141817;-70
2022/02/21 01:54:50;;;;;;;1.50;1.00;;;;;;;5.08;81.41;97567.73;429672;1270;141690;-74
2022/02/21 02:04:56;;;;;;;2.10;1.60;;;;;;;5.07;81.80;97542.30;434669;1270;141810;-71
2022/02/21 02:15:02;;;;;;;3.50;1.50;;;;;;;5.06;82.20;97518.84;443480;1270;143298;-70
2022/02/21 02:25:09;;;;;;;1.60;1.20;;;;;;;5.09;82.17;97490.70;447308;1269;141987;-71
2022/02/21 02:35:15;;;;;;;0.90;0.70;;;;;;;5.14;82.40;97467.42;443517;1271;190769;-71
2022/02/21 02:45:20;;;;;;;1.10;0.80;;;;;;;5.19;82.42;97446.02;446579;1271;182081;-71
2022/02/21 02:55:26;;;;;;;3.40;1.00;;;;;;;5.21;82.40;97427.01;434785;1271;142050;-69
2022/02/21 03:05:32;;;;;;;0.90;0.60;;;;;;;5.21;82.60;97401.16;430175;1271;142045;-69
2022/02/21 03:15:38;;;;;;;1.10;1.00;;;;;;;5.19;82.97;97379.61;440829;1271;142335;-71
2022/02/21 03:25:44;;;;;;;1.30;0.90;;;;;;;5.18;83.17;97360.77;447265;1270;142496;-71
2022/02/21 03:35:50;;;;;;;0.80;0.80;;;;;;;5.14;83.07;97317.17;445425;1270;145633;-70
2022/02/21 03:45:56;;;;;;;0.90;0.60;;;;;;;5.13;83.02;97293.17;446634;1270;142327;-70
2022/02/21 03:56:02;;;;;;;1.20;0.80;;;;;;;5.13;83.34;97285.01;447409;1271;142375;-71
2022/02/21 04:06:08;;;;;;;2.20;1.80;;;;;;;5.14;83.36;97271.95;446632;1270;142608;-70
2022/02/21 04:16:13;;;;;;;1.40;1.10;;;;;;;5.15;83.39;97253.48;447338;1270;140936;-71
2022/02/21 04:26:19;;;;;;;1.10;0.70;;;;;;;5.17;83.38;97238.54;447011;1272;142359;-71
2022/02/21 04:36:30;;;;;;;1.70;1.30;;;;;;;5.20;83.41;97221.53;446228;1272;143187;-71
2022/02/21 04:46:36;;;;;;;2.50;1.00;;;;;;;5.23;83.38;97212.05;445139;1271;141846;-70
2022/02/21 04:56:42;;;;;;;1.30;1.20;;;;;;;5.26;83.57;97202.27;433029;1272;140929;-70
2022/02/21 05:06:48;;;;;;;1.90;1.10;;;;;;;5.25;83.73;97174.64;429281;1273;141745;-68
2022/02/21 05:16:53;;;;;;;2.80;1.40;;;;;;;5.27;84.25;97174.45;443659;1271;141508;-70
2022/02/21 05:27:00;;;;;;;3.60;2.30;;;;;;;5.28;83.92;97167.78;446444;1271;165950;-68
2022/02/21 05:37:07;;;;;;;3.50;1.70;;;;;;;5.26;83.78;97152.88;446973;1273;141690;-70
2022/02/21 05:47:13;;;;;;;5.90;1.90;;;;;;;5.26;84.00;97128.08;446198;1272;140791;-70
2022/02/21 05:57:19;;;;;;;1.60;0.50;;;;;;;5.25;83.95;97106.65;435085;1272;141389;-71
2022/02/21 06:07:25;;;;;;;1.70;1.20;;;;;;;5.23;84.00;97098.63;447006;1272;142186;-70
2022/02/21 06:17:30;;;;;;;1.00;0.70;;;;;;;5.25;84.21;97092.27;446924;1273;142511;-71
2022/02/21 06:27:36;;;;;;;1.00;0.80;;;;;;;5.31;84.14;97071.11;430690;1273;142344;-70
2022/02/21 06:37:47;;;;;;;2.40;1.30;;;;;;;5.36;84.04;97065.98;446947;1271;142332;-71
2022/02/21 06:47:52;;;;;;;2.20;1.40;;;;;;;5.47;83.73;97065.08;447169;1271;142609;-71
2022/02/21 06:57:59;;;;;;;1.90;1.00;;;;;;;5.62;83.27;97061.27;447011;1271;141003;-71
2022/02/21 07:08:05;;;;;;;2.40;1.50;;;;;;;5.70;83.06;97055.35;447202;1271;141620;-71
2022/02/21 07:18:11;;;;;;;2.90;1.50;;;;;;;5.80;82.62;97045.89;429792;1272;141874;-70
2022/02/21 07:28:17;;;;;;;3.50;1.80;;;;;;;5.92;82.20;97058.35;437551;1271;142322;-70
2022/02/21 07:38:23;;;;;;;5.30;2.90;;;;;;;6.02;81.77;97071.24;445459;1270;142796;-70
2022/02/21 07:48:29;;;;;;;2.20;1.30;;;;;;;6.11;81.37;97081.86;443424;1271;141432;-70
2022/02/21 07:58:35;;;;;;;1.40;1.10;;;;;;;6.23;80.89;97089.52;443432;1271;142264;-72
2022/02/21 08:08:41;;;;;;;2.30;1.60;;;;;;;6.43;80.09;97085.00;438211;1270;141302;-72
2022/02/21 08:18:46;;;;;;;2.10;1.00;;;;;;;6.60;79.63;97092.55;446194;1271;142723;-70
2022/02/21 08:28:52;;;;;;;2.00;1.30;;;;;;;6.86;79.15;97094.11;442576;1270;141283;-71
2022/02/21 08:38:58;;;;;;;2.30;1.30;;;;;;;7.07;78.64;97098.89;446626;1271;141620;-68
2022/02/21 08:49:05;;;;;;;2.90;1.60;;;;;;;7.20;77.95;97095.16;447297;1271;141947;-68
2022/02/21 08:59:11;;;;;;;2.70;1.50;;;;;;;7.26;77.40;97116.57;438311;1271;141787;-67
2022/02/21 09:09:18;;;;;;;1.70;1.50;;;;;;;7.39;76.99;97115.52;429150;1271;142122;-63
2022/02/21 09:19:24;;;;;;;2.60;1.70;;;;;;;7.65;76.08;97098.23;436737;1271;141903;-69
2022/02/21 09:29:30;;;;;;;1.90;1.30;;;;;;;8.03;75.31;97087.27;444673;1271;141996;-73
2022/02/21 09:39:36;;;;;;;2.20;1.30;;;;;;;8.25;73.93;97102.98;446318;1271;142708;-73
2022/02/21 09:49:42;;;;;;;0.80;0.60;;;;;;;8.41;72.63;97123.44;447086;1271;143387;-66
2022/02/21 09:59:48;;;;;;;2.50;1.30;;;;;;;8.62;71.83;97123.77;446108;1271;142029;-66
2022/02/21 10:10:00;;;;;;;2.00;1.20;;;;;;;8.64;70.84;97144.66;446311;1271;142237;-68
2022/02/21 10:20:09;;;;;;;3.30;0.90;;;;;;;8.62;69.76;97181.85;439906;1271;153448;-70
2022/02/21 10:30:17;;;;;;;1.90;0.80;;;;;;;8.47;67.75;97198.56;446412;1271;141933;-71
2022/02/21 10:40:42;;;;;;;2.20;0.50;;;;;;;8.39;66.25;97227.86;447052;1271;141687;-79
2022/02/21 10:50:57;;;;;;;1.50;0.60;;;;;;;7.27;66.87;97306.74;444214;1271;142207;-69
2022/02/21 11:01:05;;;;;;;1.30;0.60;;;;;;;6.35;68.34;97304.27;446888;1271;155106;-68
2022/02/21 11:11:11;;;;;;;;;;;;;;;6.19;68.73;97327.15;447176;1271;141202;-66
2022/02/21 11:21:19;;;;;;;1.10;0.80;;;;;;;6.18;67.85;97324.09;446240;1273;129031;-69
2022/02/21 11:31:32;;;;;;;0.60;0.30;;;;;;;6.10;66.32;97337.44;437774;1273;141407;-67
2022/02/21 11:41:38;;;;;;;1.10;1.00;;;;;;;5.76;66.17;97343.94;446845;1272;141671;-68
2022/02/21 11:51:44;;;;;;;0.90;0.50;;;;;;;5.84;66.50;97359.06;446290;1270;142584;-73
2022/02/21 12:02:00;;;;;;;1.60;0.90;;;;;;;5.98;65.92;97378.99;446864;1272;141947;-62
2022/02/21 12:12:26;;;;;;;2.70;1.10;;;;;;;5.96;65.23;97397.59;446053;1271;142596;-63
2022/02/21 12:22:33;;;;;;;1.80;1.00;;;;;;;6.21;65.24;97412.75;447001;1271;143528;-63
2022/02/21 12:32:54;;;;;;;2.50;0.90;;;;;;;6.17;64.56;97417.62;447006;1271;141533;-63
2022/02/21 12:43:00;;;;;;;4.30;2.10;;;;;;;6.10;64.35;97434.38;446974;1271;141534;-63
2022/02/21 12:53:07;;;;;;;3.90;1.40;;;;;;;6.27;63.85;97438.20;434495;1271;141508;-61
2022/02/21 13:03:23;;;;;;;4.20;1.20;;;;;;;6.17;63.41;97441.58;446253;1271;141406;-62
2022/02/21 13:13:29;;;;;;;2.00;1.00;;;;;;;6.36;63.03;97452.29;447108;1269;140818;-63
2022/02/21 13:23:34;;;;;;;2.00;1.00;;;;;;;6.21;61.97;97468.76;447072;1271;141396;-67
2022/02/21 13:33:46;;;;;;;3.00;1.90;;;;;;;6.12;61.47;97490.09;446328;1271;141163;-62
2022/02/21 13:43:52;;;;;;;2.40;1.40;;;;;;;6.23;61.18;97508.86;447210;1270;142251;-63
2022/02/21 13:53:58;;;;;;;4.30;1.80;;;;;;;6.32;60.76;97519.67;446690;1273;141050;-62
2022/02/21 14:04:08;;;;;;;2.40;0.80;;;;;;;6.32;61.08;97530.56;431688;1271;192473;-61
2022/02/21 14:14:15;;;;;;;5.10;0.80;;;;;;;6.19;60.42;97516.11;443374;1271;140648;-62
2022/02/21 14:24:21;;;;;;;1.10;0.60;;;;;;;5.74;60.03;97534.16;446436;1271;140964;-60
2022/02/21 14:34:27;;;;;;;7.00;1.50;;;;;;;5.38;60.20;97544.90;443058;1272;193851;-59
2022/02/21 14:44:33;;;;;;;2.70;0.70;;;;;;;5.18;60.74;97568.21;444419;1272;141407;-60
2022/02/21 14:54:39;;;;;;;5.40;1.30;;;;;;;5.03;60.79;97567.37;437803;1273;142807;-60
2022/02/21 15:04:45;;;;;;;2.40;1.00;;;;;;;5.01;60.97;97558.54;440395;1272;141137;-62
2022/02/21 15:14:51;;;;;;;2.90;0.90;;;;;;;5.09;60.90;97559.53;439954;1271;141657;-62
2022/02/21 15:24:57;;;;;;;3.10;1.00;;;;;;;4.94;60.37;97560.94;444658;1271;141358;-65
2022/02/21 15:35:06;;;;;;;10.20;1.80;;;;;;;4.90;58.95;97567.46;441125;1271;142248;-60
2022/02/21 15:45:12;;;;;;;2.10;0.80;;;;;;;4.68;57.55;97570.47;443299;1271;141542;-65
2022/02/21 15:55:18;;;;;;;1.90;0.90;;;;;;;4.56;58.49;97600.95;447217;1271;142352;-64
2022/02/21 16:05:24;;;;;;;3.30;1.40;;;;;;;4.14;59.25;97604.53;446981;1271;140658;-62
2022/02/21 16:15:30;;;;;;;5.10;2.20;;;;;;;3.37;60.35;97606.95;446221;1271;141026;-60
2022/02/21 16:25:36;;;;;;;3.00;1.40;;;;;;;2.84;61.19;97614.84;447042;1271;141007;-67
2022/02/21 16:35:43;;;;;;;4.50;1.00;;;;;;;2.46;62.27;97611.54;447102;1271;140907;-73
2022/02/21 16:45:52;;;;;;;1.90;1.00;;;;;;;2.18;62.84;97631.54;446452;1271;140727;-71
2022/02/21 16:55:58;;;;;;;5.40;1.70;;;;;;;2.01;63.30;97641.18;440905;1272;141208;-68
2022/02/21 17:06:07;;;;;;;5.20;1.30;;;;;;;1.97;63.40;97638.46;444985;1272;142093;-71
2022/02/21 17:16:14;;;;;;;6.10;2.70;;;;;;;1.91;63.43;97643.16;443773;1271;141107;-69
2022/02/21 17:26:20;;;;;;;10.70;5.60;;;;;;;1.73;63.82;97654.38;430744;1271;142261;-69
2022/02/21 17:36:26;;;;;;;19.50;7.10;;;;;;;1.63;64.18;97651.31;446429;1271;143469;-69
2022/02/21 17:46:34;;;;;;;26.20;9.50;;;;;;;1.49;64.64;97647.15;435637;1271;142192;-63
2022/02/21 17:56:40;;;;;;;32.00;11.80;;;;;;;1.29;65.25;97641.90;439803;1271;141977;-65
2022/02/21 18:06:46;;;;;;;18.10;8.80;;;;;;;1.07;65.76;97643.50;435845;1271;143268;-62
2022/02/21 18:16:52;;;;;;;25.90;10.60;;;;;;;0.91;66.20;97636.08;443604;1271;181708;-64
2022/02/21 18:26:58;;;;;;;17.80;9.20;;;;;;;0.81;66.73;97636.96;446928;1271;142042;-64
2022/02/21 18:37:04;;;;;;;43.30;20.00;;;;;;;0.82;67.00;97629.55;446895;1271;212719;-66
2022/02/21 18:47:10;;;;;;;24.50;11.80;;;;;;;0.61;67.15;97627.58;447077;1271;141631;-65
2022/02/21 18:57:16;;;;;;;30.20;11.70;;;;;;;0.44;67.66;97629.55;446299;1269;143255;-64
2022/02/21 19:07:22;;;;;;;19.80;11.10;;;;;;;0.34;68.13;97630.92;438414;1271;194626;-64
2022/02/21 19:17:28;;;;;;;25.70;11.90;;;;;;;0.25;68.47;97621.73;447113;1271;145711;-62
2022/02/21 19:27:34;;;;;;;13.30;6.30;;;;;;;0.20;68.77;97623.39;446088;1271;145214;-63
2022/02/21 19:37:40;;;;;;;22.50;10.80;;;;;;;0.16;68.85;97623.29;446343;1272;141571;-63
2022/02/21 19:47:46;;;;;;;11.50;7.50;;;;;;;0.21;68.84;97626.09;442113;1272;142517;-63
2022/02/21 19:57:53;;;;;;;18.10;10.10;;;;;;;0.26;68.83;97630.79;446419;1271;141645;-74
2022/02/21 20:08:00;;;;;;;17.70;10.80;;;;;;;0.22;68.65;97638.95;447183;1271;143127;-75
2022/02/21 20:18:06;;;;;;;14.00;7.90;;;;;;;0.18;69.01;97630.58;446331;1271;142663;-74
2022/02/21 20:28:12;;;;;;;15.50;7.70;;;;;;;0.32;68.92;97631.17;447152;1271;141471;-74
2022/02/21 20:38:18;;;;;;;15.90;8.30;;;;;;;0.42;68.99;97633.92;447232;1271;142170;-72
2022/02/21 20:48:23;;;;;;;15.10;8.40;;;;;;;0.56;68.57;97628.18;446316;1271;142357;-69
2022/02/21 20:58:29;;;;;;;11.60;6.70;;;;;;;0.60;68.82;97623.88;446997;1273;141458;-69
2022/02/21 21:08:35;;;;;;;11.80;5.30;;;;;;;0.76;68.85;97626.91;447236;1271;142235;-69
2022/02/21 21:18:41;;;;;;;15.20;7.50;;;;;;;1.01;68.81;97626.38;446382;1271;142867;-68
2022/02/21 21:28:47;;;;;;;13.70;5.90;;;;;;;1.14;68.47;97625.55;447177;1271;142732;-68
2022/02/21 21:38:53;;;;;;;11.10;5.40;;;;;;;1.08;68.45;97623.08;447137;1271;142227;-65
2022/02/21 21:48:59;;;;;;;12.10;5.90;;;;;;;1.28;68.27;97623.68;446834;1272;142291;-65
2022/02/21 21:59:05;;;;;;;14.10;6.60;;;;;;;1.35;68.12;97626.58;444097;1272;142482;-66
2022/02/21 22:09:12;;;;;;;11.10;5.10;;;;;;;1.48;67.91;97629.10;434030;1271;141938;-64
2022/02/21 22:19:18;;;;;;;10.00;4.70;;;;;;;1.55;67.75;97636.25;447020;1270;143164;-64
2022/02/21 22:29:24;;;;;;;11.90;5.10;;;;;;;1.53;67.58;97639.67;434095;1271;141089;-64
2022/02/21 22:39:30;;;;;;;6.50;3.50;;;;;;;1.67;67.18;97637.29;439194;1271;142206;-63
2022/02/21 22:49:36;;;;;;;7.50;3.80;;;;;;;1.83;66.73;97649.48;442957;1269;144986;-65
2022/02/21 22:59:41;;;;;;;8.50;3.60;;;;;;;2.01;66.44;97655.30;447158;1271;141813;-66
2022/02/21 23:09:48;;;;;;;5.70;3.00;;;;;;;2.16;66.12;97662.02;443196;1273;142369;-65
2022/02/21 23:19:54;;;;;;;6.60;3.60;;;;;;;2.31;65.73;97672.17;438546;1271;141132;-64
2022/02/21 23:30:00;;;;;;;7.10;2.50;;;;;;;2.37;65.55;97679.23;436086;1271;143167;-63
2022/02/21 23:40:08;;;;;;;6.60;2.30;;;;;;;2.42;65.53;97683.64;434634;1271;143852;-62
2022/02/21 23:50:14;;;;;;;4.20;2.90;;;;;;;2.43;65.68;97694.23;447142;1271;141813;-68
